• Join FlightAware (Why Join?)
  • Login
  • US Flag 
07:39AM EDT


 

Airport Tracker/Info


-or-


 

Live Flight TrackerFlight Track Log ✈ SWA1385 ✈ 20-Apr-2013 ✈ KPIT - KPHX

Flight Track Log - Related Links

Times and Time Zones

All times are in EDT time to prevent confusion due to time zone crossing. See the SWA1385 flight status page for this flight to view local times or setup timezone preferences in your user account.

Time Position Orientation Groundspeed Altitude Reporting Facility
EDT Latitude Longitude Course Direction KTS MPH feet Rate Location/Type
03:04PM 40.5025 -80.3483 270° West 164 189 4,300  Level Cleveland Center
03:05PM 40.5047 -80.4356 272° West 201 231 7,500 3,480 Climbing Cleveland Center
03:06PM 40.4861 -80.5175 253° West 232 267 11,300 3,000 Climbing Cleveland Center
03:07PM 40.4258 -80.6022 227° Southwest 289 333 13,600 3,000 Climbing Cleveland Center
03:08PM 40.3922 -80.7003 246° West 284 327 17,300 3,240 Climbing Cleveland Center
03:09PM 40.4667 -81.0283 270° West  Level FlightAware Approximate
03:09PM 40.4006 -80.8175 275° West 297 342 20,100  Level Cleveland Center
03:10PM 40.4064 -80.9375 274° West 311 358 22,800 2,460 Climbing Cleveland Center
03:11PM 40.4142 -81.0631 275° West 333 383 25,100 1,740 Climbing Cleveland Center
03:13PM 40.4225 -81.2986 273° West 360 414 28,000 1,440 Climbing Indianapolis Center
03:14PM 40.4289 -81.4372 274° West 373 429 29,500 1,920 Climbing Indianapolis Center
03:15PM 40.4361 -81.5981 273° West 374 430 32,000 1,200 Climbing Indianapolis Center
03:16PM 40.4419 -81.7344 273° West 371 427 32,000 420 Level Indianapolis Center
03:17PM 40.4336 -81.8742 266° West 384 442 32,900 1,020 Climbing Indianapolis Center
03:18PM 40.4178 -82.0156 262° West 387 445 34,100 1,620 Climbing Indianapolis Center
03:19PM 40.4017 -82.1583 262° West 390 449 36,300 1,560 Climbing Indianapolis Center
03:20PM 40.3853 -82.2922 261° West 373 429 37,400 840 Climbing Indianapolis Center
03:21PM 40.3697 -82.4319 262° West 382 440 38,100 660 Climbing Indianapolis Center
03:22PM 40.3519 -82.5750 261° West 390 449 38,800 720 Climbing Indianapolis Center
03:23PM 40.3364 -82.7194 262° West 394 453 39,600 540 Climbing Indianapolis Center
03:24PM 40.3167 -82.8642 260° West 399 459 40,000 180 Climbing Indianapolis Center
03:25PM 40.3039 -83.0097 263° West 399 459 40,000  Level Indianapolis Center
03:26PM 40.2933 -83.1542 265° West 399 459 40,000  Level Indianapolis Center
03:27PM 40.2786 -83.3203 263° West 393 452 40,000  Level Indianapolis Center
03:28PM 40.2675 -83.4639 264° West 396 456 40,000  Level Indianapolis Center
03:29PM 40.2547 -83.6047 263° West 392 451 40,000  Level Indianapolis Center
03:30PM 40.2419 -83.7450 263° West 388 447 40,000  Level Indianapolis Center
03:31PM 40.2294 -83.8842 263° West 386 444 40,000  Level Indianapolis Center
03:32PM 40.2172 -84.0236 263° West 383 441 40,000  Level Indianapolis Center
03:33PM 40.2044 -84.1636 263° West 386 444 40,000  Level Indianapolis Center
03:35PM 40.1919 -84.3047 263° West 390 449 40,000  Level Indianapolis Center
03:36PM 40.1781 -84.4461 263° West 390 449 40,000  Level Indianapolis Center
03:37PM 40.1625 -84.6114 263° West 390 449 40,000  Level Indianapolis Center
03:38PM 40.1492 -84.7550 263° West 394 453 40,000  Level Indianapolis Center
03:39PM 40.1331 -84.8972 262° West 393 452 40,000  Level Indianapolis Center
03:40PM 40.1211 -85.0403 264° West 395 455 40,000  Level Indianapolis Center
03:41PM 40.1058 -85.1844 262° West 397 457 40,000  Level Indianapolis Center
03:42PM 40.0906 -85.3289 262° West 399 459 40,000  Level Indianapolis Center
03:43PM 40.0767 -85.4728 263° West 396 456 40,000  Level Indianapolis Center
03:44PM 40.0608 -85.6158 262° West 395 455 40,000  Level Indianapolis Center
03:44PM 40.0500 -85.7100 261° West 394 453 40,000  Level Indianapolis Center
03:45PM 40.0358 -85.8536 263° West 394 453 40,000  Level Indianapolis Center
03:46PM 40.0194 -85.9981 262° West 394 453 40,000  Level Indianapolis Center
03:47PM 40.0044 -86.1400 262° West 394 453 40,000  Level Indianapolis Center
03:48PM 39.9981 -86.1967 262° West 398 458 40,000  Level Chicago Center
03:49PM 39.9828 -86.3406 262° West 401 461 40,000  Level Chicago Center
03:49PM 39.9728 -86.4281 262° West 400 460 40,000  Level Indianapolis Center
03:51PM 39.9567 -86.5719 262° West 400 460 40,000  Level Indianapolis Center
03:52PM 39.9397 -86.7164 261° West 402 463 40,000  Level Indianapolis Center
03:53PM 39.9231 -86.8594 261° West 400 460 40,000  Level Indianapolis Center
03:54PM 39.9039 -87.0314 262° West 399 459 40,000  Level Indianapolis Center
03:55PM 39.8872 -87.1736 261° West 397 457 40,000  Level Indianapolis Center
03:56PM 39.8697 -87.3156 261° West 396 456 40,000  Level Indianapolis Center
03:57PM 39.8525 -87.4547 261° West 392 451 40,000  Level Indianapolis Center
03:58PM 39.8356 -87.5953 261° West 393 452 40,000  Level Indianapolis Center
03:59PM 39.8186 -87.7364 261° West 394 453 40,000  Level Indianapolis Center
04:00PM 39.8008 -87.8781 261° West 395 455 40,000  Level Indianapolis Center
04:01PM 39.7833 -88.0200 261° West 396 456 40,000  Level Indianapolis Center
04:02PM 39.7650 -88.1617 260° West 397 457 40,000  Level Indianapolis Center
04:03PM 39.7467 -88.3044 261° West 398 458 40,000  Level Indianapolis Center
04:04PM 39.7242 -88.4764 260° West 399 459 40,000  Level Indianapolis Center
04:05PM 39.7058 -88.6192 261° West 400 460 40,000  Level Indianapolis Center
04:06PM 39.6881 -88.7625 261° West 401 461 40,000  Level Indianapolis Center
04:07PM 39.6686 -88.9064 260° West 401 461 40,000  Level Indianapolis Center
04:08PM 39.6500 -89.0506 261° West 403 464 40,000  Level Indianapolis Center
04:09PM 39.6247 -89.2111 258° West 407 468 40,000  Level Kansas City Center
04:10PM 39.6075 -89.3419 260° West 405 466 40,000  Level Kansas City Center
04:11PM 39.5875 -89.4856 260° West 406 467 40,000  Level Kansas City Center
04:12PM 39.5631 -89.6578 260° West 407 468 40,000  Level Kansas City Center
04:13PM 39.5431 -89.8003 260° West 406 467 40,000  Level Kansas City Center
04:14PM 39.5225 -89.9417 259° West 403 464 40,000  Level Kansas City Center
04:15PM 39.5025 -90.0842 260° West 404 465 40,000  Level Kansas City Center
04:16PM 39.4811 -90.2264 259° West 405 466 40,000  Level Kansas City Center
04:17PM 39.4603 -90.3700 259° West 407 468 40,000  Level Kansas City Center
04:18PM 39.4389 -90.5128 259° West 408 470 40,000  Level Kansas City Center
04:19PM 39.4133 -90.6847 259° West 408 470 40,000  Level Kansas City Center
04:20PM 39.3914 -90.8250 259° West 404 465 40,000  Level Kansas City Center
04:21PM 39.3706 -90.9686 259° West 407 468 40,000  Level Kansas City Center
04:22PM 39.3481 -91.1083 258° West 403 464 40,000  Level Kansas City Center
04:23PM 39.3267 -91.2483 259° West 401 461 40,000  Level Kansas City Center
04:24PM 39.3039 -91.3892 258° West 402 463 40,000  Level Kansas City Center
04:25PM 39.2772 -91.5572 258° West 401 461 40,000  Level Kansas City Center
04:26PM 39.2564 -91.6953 259° West 397 457 40,000  Level Kansas City Center
04:28PM 39.2319 -91.8483 258° West 399 459 40,000  Level Kansas City Center
04:29PM 39.2097 -91.9892 259° West 400 460 40,000  Level Kansas City Center
04:30PM 39.1864 -92.1292 258° West 401 461 40,000  Level Kansas City Center
04:31PM 39.1619 -92.2672 257° West 399 459 40,000  Level Kansas City Center
04:32PM 39.1389 -92.4086 258° West 400 460 40,000  Level Kansas City Center
04:33PM 39.1144 -92.5536 258° West 407 468 40,000  Level Kansas City Center
04:34PM 39.0911 -92.6922 258° West 404 465 40,000  Level Kansas City Center
04:35PM 39.0628 -92.8578 258° West 406 467 40,000  Level Kansas City Center
04:36PM 39.0386 -92.9956 257° West 402 463 40,000  Level Kansas City Center
04:37PM 39.0144 -93.1364 258° West 403 464 40,000  Level Kansas City Center
04:38PM 38.9883 -93.2836 257° West 403 464 40,000  Level Kansas City Center
04:39PM 38.9642 -93.4228 257° West 402 463 40,000  Level Kansas City Center
04:40PM 38.9386 -93.5675 257° West 409 471 40,000  Level Kansas City Center
04:41PM 38.9131 -93.7097 257° West 410 472 40,000  Level Kansas City Center
04:42PM 38.8872 -93.8639 258° West 407 468 40,000  Level Kansas City Center
04:43PM 38.8578 -94.0194 256° West 408 470 40,000  Level Kansas City Center
04:44PM 38.8339 -94.1539 257° West 405 466 40,000  Level Kansas City Center
04:45PM 38.8094 -94.2875 257° West 403 464 40,000  Level Kansas City Center
04:46PM 38.7806 -94.4436 257° West 401 461 40,000  Level Kansas City Center
04:47PM 38.7553 -94.5756 256° West 398 458 40,000  Level Kansas City Center
04:48PM 38.7261 -94.7294 256° West 397 457 40,000  Level Kansas City Center
04:49PM 38.7014 -94.8606 256° West 396 456 40,000  Level Kansas City Center
04:50PM 38.6761 -94.9931 256° West 399 459 40,000  Level Kansas City Center
04:51PM 38.6467 -95.1475 256° West 398 458 40,000  Level Kansas City Center
04:52PM 38.6214 -95.2797 256° West 398 458 40,000  Level Kansas City Center
04:53PM 38.5911 -95.4378 256° West 407 468 40,000  Level Kansas City Center
04:54PM 38.5639 -95.5717 255° West 407 468 40,000  Level Kansas City Center
04:55PM 38.5339 -95.7269 256° West 402 463 40,000  Level Kansas City Center
04:56PM 38.5075 -95.8625 256° West 408 470 40,000  Level Kansas City Center
04:57PM 38.4808 -95.9961 256° West 407 468 40,000  Level Kansas City Center
04:58PM 38.4486 -96.1511 255° West 403 464 40,000  Level Kansas City Center
04:59PM 38.4214 -96.2833 255° West 403 464 40,000  Level Kansas City Center
05:00PM 38.3894 -96.4394 255° West 406 467 40,000  Level Kansas City Center
05:01PM 38.3600 -96.5833 255° West 409 471 40,000  Level Kansas City Center
05:02PM 38.3322 -96.7211 256° West 403 464 40,000  Level Kansas City Center
05:04PM 38.3028 -96.8583 255° West 402 463 40,000  Level Kansas City Center
05:05PM 38.2747 -96.9956 255° West 402 463 40,000  Level Kansas City Center
05:06PM 38.2450 -97.1344 255° West 406 467 40,000  Level Kansas City Center
05:07PM 38.2156 -97.2728 255° West 406 467 40,000  Level Kansas City Center
05:08PM 38.1806 -97.4375 255° West 404 465 40,000  Level Kansas City Center
05:09PM 38.1481 -97.5792 254° West 405 466 40,000  Level Kansas City Center
05:10PM 38.1186 -97.7169 255° West 406 467 40,000  Level Kansas City Center
05:11PM 38.0853 -97.8689 254° West 410 472 40,000  Level Kansas City Center
05:12PM 38.0556 -98.0067 255° West 407 468 40,000  Level Kansas City Center
05:13PM 38.0236 -98.1506 254° West 402 463 40,000  Level Kansas City Center
05:14PM 37.9956 -98.2800 255° West 401 461 40,000  Level Kansas City Center
05:15PM 37.9653 -98.4153 254° West 401 461 40,000  Level Kansas City Center
05:16PM 37.9342 -98.5517 254° West 403 464 40,000  Level Kansas City Center
05:17PM 37.9028 -98.6853 253° West 400 460 40,000  Level Kansas City Center
05:18PM 37.8725 -98.8211 254° West 400 460 40,000  Level Kansas City Center
05:19PM 37.8417 -98.9567 254° West 401 461 40,000  Level Kansas City Center
05:20PM 37.8028 -99.1192 253° West 402 463 40,000  Level Kansas City Center
05:21PM 37.7728 -99.2564 255° West 404 465 40,000  Level Kansas City Center
05:22PM 37.7406 -99.3919 253° West 404 465 40,000  Level Kansas City Center
05:23PM 37.7056 -99.5322 253° West 404 465 40,000  Level Kansas City Center
05:24PM 37.6439 -99.6739 241° Southwest 408 470 40,000  Level Kansas City Center
05:25PM 37.5931 -99.7964 242° Southwest 410 472 40,000  Level Kansas City Center
05:26PM 37.5428 -99.9186 243° Southwest 410 472 40,000  Level Kansas City Center
05:27PM 37.4844 -100.0617 243° Southwest 410 472 40,000  Level Kansas City Center
05:28PM 37.4339 -100.1814 242° Southwest 406 467 40,000  Level Kansas City Center
05:29PM 37.3842 -100.3261 247° West 406 467 40,000  Level Kansas City Center
05:30PM 37.3556 -100.4544 254° West 397 457 40,000  Level Kansas City Center
05:31PM 37.3269 -100.5817 254° West 394 453 40,000  Level Kansas City Center
05:32PM 37.2917 -100.7303 253° West 395 455 40,000  Level Kansas City Center
05:33PM 37.2619 -100.8586 254° West 397 457 40,000  Level Kansas City Center
05:34PM 37.2267 -101.0097 254° West 400 460 40,000  Level Kansas City Center
05:35PM 37.1958 -101.1386 253° West 401 461 40,000  Level Kansas City Center
05:36PM 37.1642 -101.2697 253° West 406 467 40,000  Level Kansas City Center
05:37PM 37.1286 -101.4228 254° West 408 470 40,000  Level Kansas City Center
05:38PM 37.1178 -101.4678 253° West 410 472 40,000  Level Albuquerque Center
05:39PM 37.0800 -101.6208 253° West 411 473 40,000  Level Albuquerque Center
05:40PM 37.0489 -101.7519 253° West 410 472 40,000  Level Albuquerque Center
05:41PM 37.0183 -101.8825 254° West 409 471 40,000  Level Albuquerque Center
05:42PM 36.9814 -102.0306 253° West 400 460 40,000  Level Albuquerque Center
05:43PM 36.9506 -102.1589 253° West 401 461 40,000  Level Albuquerque Center
05:44PM 36.9125 -102.3103 253° West 407 468 40,000  Level Albuquerque Center
05:45PM 36.8756 -102.4519 252° West 407 468 40,000  Level Albuquerque Center
05:46PM 36.8450 -102.5764 253° West 412 474 40,000  Level Albuquerque Center
05:47PM 36.8064 -102.7292 253° West 413 475 40,000  Level Albuquerque Center
05:48PM 36.7731 -102.8606 252° West 413 475 40,000  Level Albuquerque Center
05:49PM 36.7347 -103.0142 253° West 414 476 40,000  Level Albuquerque Center
05:50PM 36.7008 -103.1442 252° West 413 475 40,000  Level Albuquerque Center
05:51PM 36.6681 -103.2725 252° West 408 470 40,000  Level Albuquerque Center
05:52PM 36.6317 -103.4081 252° West 404 465 40,000  Level Albuquerque Center
05:53PM 36.5972 -103.5419 252° West 404 465 40,000  Level Albuquerque Center
05:54PM 36.5567 -103.6969 252° West 403 464 40,000  Level Albuquerque Center
05:55PM 36.5219 -103.8308 252° West 403 464 40,000  Level Albuquerque Center
05:56PM 36.4861 -103.9639 252° West 404 465 40,000  Level Albuquerque Center
05:57PM 36.4503 -104.0953 251° West 401 461 40,000  Level Albuquerque Center
05:58PM 36.4156 -104.2261 252° West 398 458 40,000  Level Albuquerque Center
05:59PM 36.3786 -104.3597 251° West 403 464 40,000  Level Albuquerque Center
06:00PM 36.3419 -104.4942 251° West 408 470 40,000  Level Albuquerque Center
06:01PM 36.3069 -104.6264 252° West 405 466 40,000  Level Albuquerque Center
06:02PM 36.2706 -104.7581 251° West 402 463 40,000  Level Albuquerque Center
06:03PM 36.2333 -104.8925 251° West 408 470 40,000  Level Albuquerque Center
06:05PM 36.1900 -105.0486 251° West 409 471 40,000  Level Albuquerque Center
06:06PM 36.1536 -105.1803 251° West 405 466 40,000  Level Albuquerque Center
06:07PM 36.1172 -105.3092 251° West 399 459 40,000  Level Albuquerque Center
06:08PM 36.0803 -105.4392 251° West 398 458 40,000  Level Albuquerque Center
06:09PM 36.0467 -105.5567 251° West 396 456 40,000  Level Albuquerque Center
06:10PM 36.0122 -105.6828 251° West 392 451 40,000  Level Albuquerque Center
06:11PM 35.9753 -105.8103 250° West 393 452 40,000  Level Albuquerque Center
06:12PM 35.9322 -105.9617 251° West 391 450 40,000  Level Albuquerque Center
06:13PM 35.8967 -106.0875 251° West 390 449 40,000  Level Albuquerque Center
06:14PM 35.8592 -106.2200 251° West 392 451 40,000  Level Albuquerque Center
06:15PM 35.8244 -106.3414 251° West 393 452 40,000  Level Albuquerque Center
06:16PM 35.7847 -106.4783 250° West 384 442 40,000  Level Albuquerque Center
06:17PM 35.7492 -106.5981 250° West 387 445 40,000  Level Albuquerque Center
06:18PM 35.7089 -106.7372 250° West 388 447 40,000  Level Albuquerque Center
06:19PM 35.6744 -106.8556 250° West 384 442 40,000  Level Albuquerque Center
06:20PM 35.6361 -106.9817 250° West 385 443 40,000  Level Albuquerque Center
06:21PM 35.6011 -107.1028 250° West 382 440 40,000  Level Albuquerque Center
06:22PM 35.5636 -107.2250 249° West 378 435 40,000  Level Albuquerque Center
06:23PM 35.5228 -107.3603 250° West 377 434 40,000  Level Albuquerque Center
06:24PM 35.4881 -107.4775 250° West 379 436 40,000  Level Albuquerque Center
06:25PM 35.4533 -107.5931 250° West 378 435 40,000  Level Albuquerque Center
06:26PM 35.4114 -107.7300 249° West 382 440 40,000  Level Albuquerque Center
06:27PM 35.3756 -107.8481 250° West 384 442 40,000  Level Albuquerque Center
06:28PM 35.3328 -107.9856 249° West 385 443 40,000  Level Albuquerque Center
06:29PM 35.2961 -108.1039 249° West 387 445 40,000  Level Albuquerque Center
06:30PM 35.2603 -108.2219 250° West 387 445 40,000  Level Albuquerque Center
06:31PM 35.2172 -108.3619 249° West 390 449 40,000  Level Albuquerque Center
06:32PM 35.1806 -108.4822 250° West 392 451 40,000  Level Albuquerque Center
06:33PM 35.1364 -108.6208 249° West 392 451 40,000  Level Albuquerque Center
06:34PM 35.1006 -108.7381 250° West 388 447 40,000  Level Albuquerque Center
06:35PM 35.0625 -108.8553 248° West 386 444 40,000  Level Albuquerque Center
06:36PM 35.0192 -108.9928 249° West 388 447 40,000  Level Albuquerque Center
06:37PM 34.9814 -109.1114 249° West 389 448 40,000  Level Albuquerque Center
06:38PM 34.9411 -109.2297 247° West 392 451 40,000 -540 Level Albuquerque Center
06:39PM 34.8925 -109.3633 246° West 388 447 38,900 -1,800 Descending Albuquerque Center
06:40PM 34.8494 -109.4764 245° Southwest 385 443 36,400 -1,440 Descending Albuquerque Center
06:41PM 34.8000 -109.6053 245° Southwest 379 436 36,000 -240 Descending Albuquerque Center
06:42PM 34.7597 -109.7197 247° West 381 438 36,000  Level Albuquerque Center
06:43PM 34.7189 -109.8311 246° West 379 436 36,000  Level Albuquerque Center
06:44PM 34.6692 -109.9594 245° Southwest 377 434 36,000  Level Albuquerque Center
06:46PM 34.6294 -110.0703 246° West 375 432 36,000  Level Albuquerque Center
06:47PM 34.5842 -110.2044 248° West 380 437 36,000 -60 Level Albuquerque Center
06:48PM 34.5425 -110.3142 245° Southwest 377 434 35,900 -1,440 Descending Albuquerque Center
06:49PM 34.4983 -110.4169 242° Southwest 369 425 33,100 -2,040 Descending Albuquerque Center
06:50PM 34.4569 -110.5392 248° West 387 445 31,800 -1,740 Descending Albuquerque Center
06:51PM 34.4133 -110.6522 245° Southwest 375 432 29,600 -2,160 Descending Albuquerque Center
06:52PM 34.3675 -110.7597 243° Southwest 365 420 27,400 -2,400 Descending Albuquerque Center
06:53PM 34.2908 -110.8769 232° Southwest 375 432 24,800 -2,400 Descending Albuquerque Center
06:54PM 34.2233 -110.9644 227° Southwest 363 418 22,600 -2,100 Descending Albuquerque Center
06:55PM 34.1578 -111.0506 227° Southwest 352 405 20,500 -2,040 Descending Albuquerque Center
06:56PM 34.0931 -111.1336 227° Southwest 343 395 18,500 -2,100 Descending Albuquerque Center
06:57PM 34.0258 -111.2200 227° Southwest 348 400 16,300 -2,160 Descending Albuquerque Center
06:58PM 33.9589 -111.3058 227° Southwest 350 403 14,100 -1,980 Descending Albuquerque Center
06:59PM 33.8925 -111.3894 226° Southwest 346 398 12,300 -1,320 Descending Albuquerque Center
07:00PM 33.8225 -111.4556 218° Southwest 321 369 11,400 -720 Descending Albuquerque Center
07:01PM 33.7892 -111.5281 241° Southwest 255 293 10,900 -840 Descending Albuquerque Center
07:02PM 33.7739 -111.6042 256° West 235 270 9,800 -1,140 Descending Albuquerque Center
07:03PM 33.7128 -111.6303 200° South 254 292 8,600 -900 Descending Albuquerque Center
07:04PM 33.6289 -111.6292 179° South 250 288 8,000 -540 Descending Albuquerque Center
07:05PM 33.5572 -111.6275 179° South 255 293 7,600 -660 Descending Albuquerque Center
07:06PM 33.4969 -111.6444 193° South 235 270 6,700 -1,020 Descending Albuquerque Center
07:07PM 33.4742 -111.7133 248° West 224 258 5,600 -1,080 Descending Albuquerque Center
07:08PM 33.4603 -111.7853 257° West 221 254 4,500 -1,080 Descending Albuquerque Center
07:09PM 33.4469 -111.8514 256° West 207 238 3,500 -960 Descending Albuquerque Center
07:10PM 33.4403 -111.9019 261° West 158 182 2,600 -780 Descending Albuquerque Center
07:11PM 33.4411 -111.9447 271° West 132 152 2,000 -780 Descending Albuquerque Center
07:12PM 33.4392 -111.9908 267° West 107 123 1,100 -900 Descending Albuquerque Center
07:14PM 33.4343 -112.0116 270° West  Level Estimated